Nearby METAR Reports

 

KIAG - Niagara Falls, New York, USA
Distance from station: W 12mi, 20km
Updated: 12/09/2018 10:53pm
Overcast
Overcast
 Wind from W
Wind: W 6 mph , 9 km/h
Temperature: 27°F , -3°C
Wind Chill: 20°F , -7°C
Dew Point: 21°F , -6°C
Humidity: 80%
Barometer: 1023 hPa
Clouds: Overcast
Visibility: 9 miles , 14 km
Cloud details: Overcast 2900 ft
2018/12/10 03:53 KIAG 100353Z 26005KT 9SM OVC029 M03/M06 A3021 RMK AO2 SLP248 T10281061 $
KBUF - Buffalo/Cheektow, New York, USA
Distance from station: S 13mi, 21km
Updated: 12/09/2018 10:54pm
Overcast
Overcast
 Wind from SSW
Wind: SSW 6 mph , 9 km/h
Temperature: 27°F , -3°C
Wind Chill: 20°F , -7°C
Dew Point: 21°F , -6°C
Humidity: 80%
Barometer: 1023 hPa
Clouds: Overcast
Visibility: 9 miles , 14 km
Cloud details: Mostly cloudy 2100 ft
Overcast 2900 ft
2018/12/10 03:54 KBUF 100354Z 20005KT 9SM BKN021 OVC029 M03/M06 A3021 RMK AO2 SLP242 T10331061
 
KROC - Rochester, New York, USA
Distance from station: E 51mi, 82km
Updated: 12/09/2018 10:54pm
Light snow, Overcast
Light snow, Overcast
 Wind from W
Wind: W 7 mph , 11 km/h
Temperature: 28°F , -2°C
Wind Chill: 21°F , -6°C
Dew Point: 23°F , -5°C
Humidity: 80%
Barometer: 1023 hPa
Summary: Light Snow
Clouds: Overcast
Visibility: 9 miles , 14 km
Cloud details: Overcast 2800 ft
2018/12/10 03:54 KROC 100354Z 27006KT 9SM -SN OVC028 M02/M05 A3021 RMK AO2 SLP240 PCPN VRY LGT P0000 T10171050
CYSN - St. Catharines A, Ontario, Canada
Distance from station: WNW 25mi, 40km
Updated: 12/09/2018 9:00pm
NOT Current
Overcast
Overcast
 Wind from NW
Wind: NW 7 mph , 11 km/h
Temperature: 30°F , -1°C
Wind Chill: 23°F , -5°C
Dew Point: 23°F , -5°C
Humidity: 75%
Barometer: 1023.7 hPa
Clouds: Overcast
Visibility: 15 miles , 24 km
Cloud details: Overcast 2400 ft
2018/12/10 02:00 CYSN 100200Z 32006KT 15SM OVC024 M01/M05 A3023 RMK SC8 LAST STFD OBS / NEXT 101200 UTC SLP244
 
KOLE - Olean, New York, USA
Distance from station: SSE 63mi, 102km
Updated: 12/09/2018 11:15pm
Overcast
Overcast
 Wind from calm
Wind: Calm
Temperature: 23°F , -5°C
Dew Point: 23°F , -5°C
Humidity: 100%
Barometer: 1019.6 hPa
Clouds: Overcast
Visibility: 10 miles , 16 km
Cloud details: Overcast 700 ft
2018/12/10 04:15 KOLE 100415Z AUTO 00000KT 10SM OVC007 M05/M05 A3011 RMK AO2
KJHW - Jamestown, New York, USA
Distance from station: SSW 74mi, 119km
Updated: 12/09/2018 10:56pm
Overcast
Overcast
 Wind from NNW
Wind: NNW 8 mph , 13 km/h
Temperature: 25°F , -4°C
Wind Chill: 16°F , -9°C
Dew Point: 21°F , -6°C
Humidity: 86%
Barometer: 1021 hPa
Clouds: Overcast
Visibility: 10 miles , 16 km
Cloud details: Overcast 1300 ft
2018/12/10 03:56 KJHW 100356Z AUTO 34007KT 10SM OVC013 M04/M06 A3015 RMK AO2 SLP238 T10441056 FZRANO
 
CWWZ - Port Weller (mar, Ontario, Canada
Distance from station: WNW 28mi, 45km
Updated: 12/09/2018 11:00pm

 Wind from WNW
Wind: WNW 10 mph , 17 km/h
Temperature: 32°F , 0°C
Wind Chill: 24°F , -4°C
Dew Point: 25°F , -4°C
Humidity: 75%
2018/12/10 04:00 CWWZ 100400Z AUTO 29009KT 00/M04 RMK AO1 SOG 03 8006 SLP240 T00001040
CWPC - Port Colborne(Au, Ontario, Canada
Distance from station: WSW 33mi, 53km
Updated: 12/09/2018 11:00pm

 Wind from NW
Wind: NW 6 mph , 9 km/h
Temperature: 27°F , -3°C
Wind Chill: 20°F , -7°C
Dew Point: 19°F , -7°C
Humidity: 74%
2018/12/10 04:00 CWPC 100400Z AUTO 32005KT M03/M07 RMK AO1 SLP247 T10301066 50000
 
CXVN - Vineland (au8), Ontario, Canada
Distance from station: W 36mi, 58km
Updated: 12/09/2018 11:00pm

 Wind from WNW
Wind: WNW 7 mph , 11 km/h
Temperature: 30°F , -1°C
Wind Chill: 23°F , -5°C
Dew Point: 23°F , -5°C
Humidity: 75%
2018/12/10 04:00 CXVN 100400Z AUTO 29006KT M01/M05 RMK AO1 SLP235 T10061054 58004
CYTZ - Toronto Il Vor, Ontario, Canada
Distance from station: NW 50mi, 81km
Updated: 12/09/2018 11:00pm
Overcast
Overcast
 Wind from W
Wind: W 8 mph , 13 km/h
Temperature: 32°F , 0°C
Wind Chill: 25°F , -4°C
Dew Point: 23°F , -5°C
Humidity: 69%
Barometer: 1023 hPa
Clouds: Overcast
Visibility: 9 miles , 14 km
Cloud details: Overcast 3100 ft
2018/12/10 04:00 CYTZ 100400Z AUTO 27007KT 9SM OVC031 00/M05 A3021 RMK SLP236
 
CXTO - Toronto City, Ontario, Canada
Distance from station: NW 52mi, 84km
Updated: 12/09/2018 11:00pm

 
Temperature: 32°F , 0°C
Dew Point: 23°F , -5°C
Humidity: 69%
2018/12/10 04:00 CXTO 100400Z AUTO 00/M05 RMK AO1 SLP230 T00001054 56010
KDKK - Dunkirk, New York, USA
Distance from station: SW 52mi, 84km
Updated: 12/09/2018 10:53pm
Overcast
Overcast
 Wind from NW
Wind: NW 8 mph , 13 km/h
Temperature: 28°F , -2°C
Wind Chill: 20°F , -7°C
Dew Point: 21°F , -6°C
Humidity: 74%
Barometer: 1023.7 hPa
Clouds: Overcast
Visibility: 8 miles , 13 km
Cloud details: Overcast 2100 ft
2018/12/10 03:53 KDKK 100353Z AUTO 32007KT 8SM OVC021 M02/M06 A3023 RMK AO2 SLP247 T10221056
 
CYOO - Oshawa, Ontario, Canada
Distance from station: N 56mi, 90km
Updated: 12/09/2018 11:00pm
Overcast
Overcast
 Wind from W
Wind: W 7 mph , 11 km/h
Temperature: 30°F , -1°C
Wind Chill: 23°F , -5°C
Dew Point: 25°F , -4°C
Humidity: 80%
Barometer: 1021.7 hPa
Clouds: Overcast
Visibility: 9 miles , 14 km
Cloud details: Overcast 2700 ft
2018/12/10 04:00 CYOO 100400Z AUTO 26006KT 9SM OVC027 M01/M04 A3017 RMK SLP226
CWWB - Burlington Piers, Ontario, Canada
Distance from station: WNW 56mi, 91km
Updated: 12/09/2018 11:00pm

 Wind from WSW
Wind: WSW 2 mph , 4 km/h
Temperature: 30°F , -1°C
Dew Point: 21°F , -6°C
Humidity: 69%
2018/12/10 04:00 CWWB 100400Z AUTO 25002KT M01/M06 RMK AO1 SLP239 T10061055 58006
 
CYYZ - Toronto/Pearson, Ontario, Canada
Distance from station: NW 60mi, 96km
Updated: 12/09/2018 11:00pm
Overcast
Overcast
 Wind from WNW
Wind: WNW 9 mph , 15 km/h
Temperature: 30°F , -1°C
Wind Chill: 22°F , -6°C
Dew Point: 21°F , -6°C
Humidity: 69%
Barometer: 1022.4 hPa
Clouds: Overcast
Visibility: 15 miles , 24 km
Cloud details: Overcast 2500 ft
2018/12/10 04:00 CYYZ 100400Z 29008KT 15SM OVC025 M01/M06 A3019 RMK SC8 SLP233
CYKZ - Toronto Buttonvi, Ontario, Canada
Distance from station: NW 62mi, 99km
Updated: 12/09/2018 11:00pm
Overcast
Overcast
 Wind from WSW
Wind: WSW 7 mph , 11 km/h
Temperature: 30°F , -1°C
Wind Chill: 23°F , -5°C
Dew Point: 23°F , -5°C
Humidity: 75%
Barometer: 1021.7 hPa
Clouds: Overcast
Visibility: 15 miles , 24 km
Cloud details: Overcast 2200 ft
2018/12/10 04:00 CYKZ 100400Z 25006KT 220V290 15SM OVC022 M01/M05 A3017 RMK SC8 STRATUS ASOCTD SLP227
 
CXHM - Hamilton Rbg Cs, Ontario, Canada
Distance from station: W 62mi, 100km
Updated: 12/09/2018 11:00pm

 Wind from WSW
Wind: WSW 1 mph , 2 km/h
Temperature: 28°F , -2°C
Dew Point: 25°F , -4°C
Humidity: 86%
2018/12/10 04:00 CXHM 100400Z AUTO 24001KT M02/M04 RMK AO1 SLP239 T10171041 57006
KDSV - Dansville, New York, USA
Distance from station: SE 62mi, 100km
Updated: 12/09/2018 10:54pm
Overcast
Overcast
 Wind from NW
Wind: NW 5 mph , 7 km/h
Temperature: 28°F , -2°C
Wind Chill: 22°F , -6°C
Dew Point: 21°F , -6°C
Humidity: 74%
Barometer: 1023.4 hPa
Clouds: Overcast
Visibility: 10 miles , 16 km
Cloud details: Overcast 2600 ft
2018/12/10 03:54 KDSV 100354Z AUTO 32004KT 10SM OVC026 M02/M06 A3022 RMK AO2 SLP249 T10221061
 
CYHM - Hamilton Airport, Ontario, Canada
Distance from station: W 63mi, 101km
Updated: 12/09/2018 11:00pm
Overcast
Overcast
 Wind from NW
Wind: NW 2 mph , 4 km/h
Temperature: 27°F , -3°C
Dew Point: 21°F , -6°C
Humidity: 80%
Barometer: 1023 hPa
Clouds: Overcast
Visibility: 15 miles , 24 km
Cloud details: Overcast 2100 ft
2018/12/10 04:00 CYHM 100400Z 31002KT 15SM OVC021 M03/M06 A3021 RMK SC8 SLP243
CWNC - Cobourg (mars), Ontario, Canada
Distance from station: NNE 63mi, 102km
Updated: 12/09/2018 11:00pm

 Wind from WNW
Wind: WNW 6 mph , 9 km/h
Temperature: 32°F , 0°C
Wind Chill: 26°F , -3°C
Dew Point: 23°F , -5°C
Humidity: 69%
2018/12/10 04:00 CWNC 100400Z AUTO 29005KT M00/M05 RMK AO1 SOG 01 7005 SLP219 T10041046